createdAt,value
2018-07-26T00:01:15.828Z,14.23
2018-07-26T00:03:54.531Z,13.77
2018-07-26T00:06:32.556Z,15.63
2018-07-26T00:14:10.047Z,13.70
2018-07-26T00:16:47.909Z,13.57
2018-07-26T00:19:26.950Z,12.97
2018-07-26T00:22:05.664Z,13.13
2018-07-26T00:24:43.508Z,13.43
2018-07-26T00:27:21.615Z,12.93
2018-07-26T00:29:59.921Z,13.70
2018-07-26T00:32:37.392Z,13.87
2018-07-26T00:35:15.106Z,15.60
2018-07-26T00:37:51.960Z,13.23
2018-07-26T00:40:29.673Z,13.67
2018-07-26T00:43:08.071Z,13.07
2018-07-26T00:45:45.868Z,12.43
2018-07-26T00:48:24.871Z,14.17
2018-07-26T00:51:02.713Z,13.07
2018-07-26T00:53:41.932Z,13.60
2018-07-26T00:56:20.259Z,13.83
2018-07-26T00:58:58.784Z,15.00
2018-07-26T01:01:36.851Z,14.30
2018-07-26T01:04:15.271Z,14.67
2018-07-26T01:06:53.993Z,14.93
2018-07-26T01:09:31.906Z,14.07
2018-07-26T01:12:09.193Z,14.33
2018-07-26T01:14:47.461Z,14.57
2018-07-26T01:17:25.291Z,14.73
2018-07-26T01:20:03.224Z,14.33
2018-07-26T01:22:41.274Z,14.63
2018-07-26T01:25:18.946Z,16.30
2018-07-26T01:27:57.082Z,18.50
2018-07-26T01:30:35.757Z,18.57
2018-07-26T01:33:13.893Z,21.57
2018-07-26T01:35:51.467Z,20.93
2018-07-26T01:38:29.921Z,16.27
2018-07-26T01:41:08.073Z,15.13
2018-07-26T01:43:53.890Z,15.87
2018-07-26T01:46:31.945Z,14.67
2018-07-26T01:49:09.904Z,14.33
2018-07-26T01:51:48.015Z,15.20
2018-07-26T01:54:26.787Z,14.20
2018-07-26T01:57:04.232Z,14.13
2018-07-26T01:59:41.778Z,15.13
2018-07-26T02:02:21.148Z,14.47
2018-07-26T02:05:00.448Z,14.47
2018-07-26T02:07:38.141Z,14.87
2018-07-26T02:10:16.230Z,13.50
2018-07-26T02:12:54.636Z,15.03
2018-07-26T02:15:33.422Z,15.17
2018-07-26T02:18:11.053Z,14.97
2018-07-26T02:20:49.832Z,15.53
2018-07-26T02:23:28.374Z,16.13
2018-07-26T02:26:06.378Z,16.40
2018-07-26T02:28:43.686Z,17.13
2018-07-26T02:31:21.506Z,16.50
2018-07-26T02:33:59.676Z,16.47
2018-07-26T02:36:37.465Z,17.70
2018-07-26T02:39:15.104Z,20.37
2018-07-26T02:41:52.873Z,20.00
2018-07-26T02:44:30.683Z,19.57
2018-07-26T02:47:08.496Z,20.00
2018-07-26T02:49:47.120Z,20.20
2018-07-26T02:52:25.224Z,18.33
2018-07-26T02:55:03.825Z,19.63
2018-07-26T02:57:41.846Z,18.63
2018-07-26T03:00:19.769Z,17.87
2018-07-26T03:02:57.888Z,18.17
2018-07-26T03:05:36.546Z,16.37
2018-07-26T03:08:14.361Z,16.37
2018-07-26T03:10:52.795Z,15.90
2018-07-26T03:13:30.796Z,15.33
2018-07-26T03:16:08.551Z,17.37
2018-07-26T03:18:45.671Z,17.73
2018-07-26T03:21:22.172Z,17.77
2018-07-26T03:23:59.345Z,16.50
2018-07-26T03:26:37.352Z,17.33
2018-07-26T03:29:15.432Z,18.53
2018-07-26T03:31:53.418Z,18.47
2018-07-26T03:34:32.566Z,18.87
2018-07-26T03:37:11.282Z,20.00
2018-07-26T03:39:49.668Z,20.13
2018-07-26T03:42:27.368Z,21.13
2018-07-26T03:45:04.300Z,22.70
2018-07-26T03:50:38.892Z,22.27
2018-07-26T03:53:25.361Z,23.33
2018-07-26T03:56:02.648Z,24.33
2018-07-26T03:58:45.202Z,23.93
2018-07-26T04:01:23.297Z,24.53
2018-07-26T04:03:59.126Z,28.70
2018-07-26T04:06:34.882Z,28.57
2018-07-26T04:09:16.654Z,23.03
2018-07-26T04:11:52.764Z,23.30
2018-07-26T04:14:28.257Z,22.40
2018-07-26T04:17:04.598Z,22.93
2018-07-26T04:19:40.749Z,21.87
2018-07-26T04:22:17.343Z,20.10
2018-07-26T04:24:53.327Z,19.27
2018-07-26T04:27:29.124Z,20.20
2018-07-26T04:30:05.390Z,20.23
2018-07-26T04:32:42.956Z,20.50
2018-07-26T04:35:18.745Z,20.67
2018-07-26T04:37:55.098Z,16.83
2018-07-26T04:40:31.714Z,15.17
2018-07-26T04:43:20.000Z,16.00
2018-07-26T04:46:05.592Z,15.00
2018-07-26T04:48:43.032Z,15.67
2018-07-26T04:54:06.178Z,13.90
2018-07-26T04:56:42.553Z,14.60
2018-07-26T04:59:18.801Z,12.50
2018-07-26T05:01:55.973Z,12.33
2018-07-26T05:04:33.265Z,12.00
2018-07-26T05:07:09.367Z,10.73
2018-07-26T05:09:45.462Z,11.93
2018-07-26T05:12:22.218Z,13.00
2018-07-26T05:14:57.992Z,12.93
2018-07-26T05:17:34.968Z,12.73
2018-07-26T05:20:12.560Z,12.17
2018-07-26T05:22:48.866Z,10.80
2018-07-26T05:25:25.678Z,10.23
2018-07-26T05:28:02.411Z,10.57
2018-07-26T05:30:38.783Z,10.70
2018-07-26T05:33:14.630Z,11.27
2018-07-26T05:35:50.676Z,11.73
2018-07-26T05:38:27.304Z,11.40
2018-07-26T05:41:03.788Z,11.60
2018-07-26T05:43:39.736Z,11.77
2018-07-26T05:46:15.340Z,12.53
2018-07-26T05:48:52.078Z,13.00
2018-07-26T05:51:28.811Z,12.97
2018-07-26T05:54:04.587Z,13.43
2018-07-26T05:56:41.628Z,13.40
2018-07-26T05:59:18.079Z,15.73
2018-07-26T06:01:55.245Z,13.87
2018-07-26T06:04:34.284Z,13.60
2018-07-26T06:07:11.016Z,14.90
2018-07-26T06:09:46.868Z,12.57
2018-07-26T06:12:23.171Z,12.43
2018-07-26T06:14:59.706Z,13.03
2018-07-26T06:17:35.731Z,14.23
2018-07-26T06:20:15.226Z,15.30
2018-07-26T06:22:52.225Z,15.63
2018-07-26T06:25:28.598Z,15.07
2018-07-26T06:28:04.945Z,14.80
2018-07-26T06:30:42.207Z,13.80
2018-07-26T06:33:19.125Z,14.27
2018-07-26T06:35:56.781Z,13.17
2018-07-26T06:38:33.861Z,13.07
2018-07-26T06:41:11.342Z,14.03
2018-07-26T06:43:48.580Z,13.40
2018-07-26T06:46:24.329Z,15.97
2018-07-26T06:49:00.015Z,13.93
2018-07-26T06:51:39.065Z,12.73
2018-07-26T06:54:16.254Z,13.30
2018-07-26T06:56:52.216Z,16.13
2018-07-26T06:59:28.374Z,13.83
2018-07-26T07:02:05.650Z,13.60
2018-07-26T07:04:43.013Z,13.03
2018-07-26T07:07:19.164Z,12.83
2018-07-26T07:09:57.738Z,13.63
2018-07-26T07:12:37.297Z,12.13
2018-07-26T07:15:13.394Z,14.53
2018-07-26T07:17:49.975Z,15.47
2018-07-26T07:20:26.655Z,14.73
2018-07-26T07:23:17.765Z,16.97
2018-07-26T07:25:54.452Z,15.17
2018-07-26T07:28:31.178Z,15.00
2018-07-26T07:31:07.902Z,15.20
2018-07-26T07:33:45.304Z,14.30
2018-07-26T07:36:37.494Z,14.50
2018-07-26T07:41:58.011Z,13.93
2018-07-26T07:44:41.685Z,17.03
2018-07-26T07:47:19.788Z,13.73
2018-07-26T07:50:15.331Z,14.07
2018-07-26T07:52:51.465Z,11.77
2018-07-26T07:55:27.765Z,10.37
2018-07-26T07:58:04.499Z,10.63
2018-07-26T08:03:23.830Z,9.37
2018-07-26T08:05:59.914Z,10.77
2018-07-26T08:08:35.875Z,13.87
2018-07-26T08:11:12.684Z,9.07
2018-07-26T08:13:49.493Z,9.47
2018-07-26T08:16:25.517Z,8.77
2018-07-26T08:19:17.408Z,9.40
2018-07-26T08:21:55.412Z,10.10
2018-07-26T08:24:44.795Z,10.70
2018-07-26T08:27:21.060Z,10.47
2018-07-26T08:29:56.703Z,10.17
2018-07-26T08:32:32.615Z,11.30
2018-07-26T08:35:08.370Z,11.07
2018-07-26T08:38:14.270Z,11.90
2018-07-26T08:40:55.634Z,11.90
2018-07-26T08:43:55.242Z,11.60
2018-07-26T08:46:31.351Z,12.37
2018-07-26T08:49:21.340Z,12.27
2018-07-26T08:51:57.464Z,12.27
2018-07-26T08:54:33.463Z,12.80
2018-07-26T08:57:09.141Z,12.87
2018-07-26T08:59:50.255Z,12.60
2018-07-26T09:02:30.706Z,13.43
2018-07-26T09:05:25.783Z,13.93
2018-07-26T09:08:15.427Z,13.17
2018-07-26T09:10:51.969Z,13.10
2018-07-26T09:13:28.210Z,13.83
2018-07-26T09:16:06.304Z,15.07
2018-07-26T09:18:52.351Z,14.13
2018-07-26T09:21:28.922Z,16.37
2018-07-26T09:27:15.959Z,17.07
2018-07-26T09:29:52.399Z,16.07
2018-07-26T09:32:33.996Z,16.10
2018-07-26T09:35:11.796Z,16.60
2018-07-26T09:38:13.738Z,16.07
2018-07-26T09:40:54.039Z,20.83
2018-07-26T09:43:33.325Z,16.13
2018-07-26T09:46:09.157Z,15.90
2018-07-26T09:48:45.322Z,16.43
2018-07-26T09:51:32.183Z,17.63
2018-07-26T09:54:13.846Z,18.07
2018-07-26T09:57:13.297Z,15.40
2018-07-26T10:05:41.375Z,16.17
2018-07-26T10:08:17.179Z,17.60
2018-07-26T10:10:53.146Z,17.30
2018-07-26T10:13:32.048Z,17.97
2018-07-26T10:16:07.917Z,18.23
2018-07-26T10:18:43.824Z,17.23
2018-07-26T10:21:20.167Z,16.83
2018-07-26T10:23:56.083Z,17.87
2018-07-26T10:26:35.319Z,18.20
2018-07-26T10:29:11.114Z,18.00
2018-07-26T10:32:03.439Z,18.13
2018-07-26T10:37:34.345Z,19.13
2018-07-26T10:40:10.330Z,19.83
2018-07-26T10:42:46.213Z,19.47
2018-07-26T10:45:21.860Z,21.03
2018-07-26T10:47:57.552Z,20.13
2018-07-26T10:50:34.000Z,20.37
2018-07-26T10:53:10.165Z,20.53
2018-07-26T10:55:46.256Z,20.63
2018-07-26T10:58:27.400Z,20.27
2018-07-26T11:01:04.144Z,20.40
2018-07-26T11:03:40.344Z,21.00
2018-07-26T11:06:16.706Z,21.40
2018-07-26T11:08:53.221Z,20.30
2018-07-26T11:11:29.310Z,20.63
2018-07-26T11:14:05.380Z,20.70
2018-07-26T11:16:41.962Z,20.90
2018-07-26T11:19:18.227Z,20.90
2018-07-26T11:21:55.304Z,20.83
2018-07-26T11:24:32.412Z,21.07
2018-07-26T11:27:08.793Z,21.57
2018-07-26T11:29:45.516Z,21.77
2018-07-26T11:32:21.995Z,21.57
2018-07-26T11:34:58.983Z,22.37
2018-07-26T11:37:36.507Z,21.97
2018-07-26T11:40:14.339Z,22.40
2018-07-26T11:42:50.660Z,22.43
2018-07-26T11:45:27.102Z,22.03
2018-07-26T11:48:03.215Z,22.83
2018-07-26T11:50:39.185Z,21.87
2018-07-26T11:53:15.493Z,22.23
2018-07-26T11:55:52.136Z,22.77
2018-07-26T11:58:28.328Z,23.60
2018-07-26T12:01:04.357Z,23.27
2018-07-26T12:03:42.181Z,23.20
2018-07-26T12:06:18.502Z,22.50
2018-07-26T12:08:56.424Z,22.60
2018-07-26T12:11:33.908Z,23.87
2018-07-26T12:14:10.020Z,23.17
2018-07-26T12:16:47.195Z,23.13
2018-07-26T12:19:23.503Z,22.63
2018-07-26T12:21:59.968Z,23.30
2018-07-26T12:24:37.112Z,23.57
2018-07-26T12:27:13.981Z,23.67
2018-07-26T12:29:50.412Z,24.37
2018-07-26T12:32:27.641Z,24.47
2018-07-26T12:35:04.786Z,25.17
2018-07-26T12:37:41.511Z,25.03
2018-07-26T12:40:19.336Z,24.67
2018-07-26T12:42:57.142Z,25.27
2018-07-26T12:45:34.598Z,26.30
2018-07-26T12:48:11.994Z,25.73
2018-07-26T12:50:48.511Z,25.23
2018-07-26T12:53:25.301Z,24.80
2018-07-26T12:56:04.663Z,24.43
2018-07-26T12:58:44.571Z,25.70
2018-07-26T13:01:21.510Z,24.00
2018-07-26T13:03:58.896Z,24.70
2018-07-26T13:06:39.510Z,23.47
2018-07-26T13:09:16.575Z,23.13
2018-07-26T13:11:53.133Z,24.27
2018-07-26T13:14:32.415Z,24.13
2018-07-26T13:17:09.935Z,24.93
2018-07-26T13:19:46.863Z,22.80
2018-07-26T13:22:23.709Z,24.43
2018-07-26T13:25:00.946Z,25.60
2018-07-26T13:27:37.670Z,26.13
2018-07-26T13:30:14.323Z,26.70
2018-07-26T13:32:50.828Z,30.03
2018-07-26T13:35:27.293Z,30.37
2018-07-26T13:38:03.912Z,31.43
2018-07-26T13:40:40.743Z,29.60
2018-07-26T13:43:17.030Z,31.33
2018-07-26T13:45:53.300Z,33.20
2018-07-26T13:48:30.569Z,34.80
2018-07-26T13:51:07.474Z,34.17
2018-07-26T13:53:43.588Z,34.03
2018-07-26T13:56:23.590Z,35.17
2018-07-26T13:59:02.031Z,33.83
2018-07-26T14:01:43.465Z,34.73
2018-07-26T14:04:24.508Z,34.17
2018-07-26T14:07:01.171Z,33.90
2018-07-26T14:09:40.330Z,31.97
2018-07-26T14:12:16.810Z,32.00
2018-07-26T14:14:54.174Z,31.77
2018-07-26T14:17:30.937Z,31.43
2018-07-26T14:20:07.320Z,31.13
2018-07-26T14:22:44.925Z,31.20
2018-07-26T14:25:21.352Z,31.67
2018-07-26T14:27:59.062Z,30.43
2018-07-26T14:30:36.414Z,31.50
2018-07-26T14:33:13.690Z,31.40
2018-07-26T14:35:50.185Z,31.77
2018-07-26T14:38:27.021Z,31.50
2018-07-26T14:41:03.899Z,31.23
2018-07-26T14:43:40.945Z,31.93
2018-07-26T14:46:19.287Z,32.07
2018-07-26T14:48:55.431Z,32.37
2018-07-26T14:51:32.777Z,32.97
2018-07-26T14:54:09.226Z,33.67
2018-07-26T14:56:46.343Z,32.43
2018-07-26T14:59:23.343Z,31.73
2018-07-26T15:02:00.790Z,30.63
2018-07-26T15:04:38.297Z,33.27
2018-07-26T15:07:18.149Z,32.43
2018-07-26T15:09:55.576Z,32.03
2018-07-26T15:12:40.156Z,32.27
2018-07-26T15:15:20.199Z,33.00
2018-07-26T15:17:58.833Z,33.50
2018-07-26T15:20:37.295Z,32.93
2018-07-26T15:23:14.903Z,34.07
2018-07-26T15:25:51.757Z,34.40
2018-07-26T15:28:34.021Z,37.63
2018-07-26T15:31:16.587Z,36.80
2018-07-26T15:33:49.229Z,38.00
2018-07-26T15:36:28.403Z,37.17
2018-07-26T15:39:05.379Z,38.07
2018-07-26T15:41:48.850Z,38.93
2018-07-26T15:44:32.078Z,36.40
2018-07-26T15:47:11.868Z,37.87
2018-07-26T15:49:50.425Z,38.17
2018-07-26T15:52:28.873Z,35.97
2018-07-26T15:55:06.772Z,37.17
2018-07-26T15:57:43.492Z,36.40
2018-07-26T16:16:12.575Z,36.40
2018-07-26T16:18:49.073Z,37.07
2018-07-26T16:21:25.826Z,35.53
2018-07-26T16:24:02.176Z,36.77
2018-07-26T16:26:40.728Z,39.30
2018-07-26T16:29:17.168Z,37.97
2018-07-26T16:31:53.152Z,36.17
2018-07-26T16:34:29.772Z,38.50
2018-07-26T16:37:05.982Z,37.67
2018-07-26T16:39:42.577Z,38.80
2018-07-26T16:42:20.250Z,38.60
2018-07-26T16:44:56.889Z,36.43
2018-07-26T16:47:34.175Z,37.07
2018-07-26T16:50:24.516Z,37.40
2018-07-26T16:53:02.051Z,36.43
2018-07-26T16:55:38.635Z,34.97
2018-07-26T16:58:19.483Z,34.10
2018-07-26T17:00:59.472Z,34.00
2018-07-26T17:03:39.103Z,34.60
2018-07-26T17:06:16.094Z,35.47
2018-07-26T17:08:53.931Z,34.57
2018-07-26T17:11:31.975Z,33.23
2018-07-26T17:14:08.566Z,35.20
2018-07-26T17:16:46.489Z,34.67
2018-07-26T17:19:25.212Z,35.70
2018-07-26T17:22:03.742Z,34.03
2018-07-26T17:24:51.434Z,33.63
2018-07-26T17:27:29.585Z,34.50
2018-07-26T17:30:08.436Z,33.67
2018-07-26T17:32:44.808Z,34.77
2018-07-26T17:35:23.780Z,32.90
2018-07-26T17:38:13.538Z,32.57
2018-07-26T17:41:22.458Z,30.43
2018-07-26T17:44:06.149Z,32.30
2018-07-26T17:47:08.707Z,31.23
2018-07-26T17:49:46.268Z,31.23
2018-07-26T17:52:23.582Z,31.80
2018-07-26T17:55:00.147Z,30.97
2018-07-26T17:57:37.423Z,31.03
2018-07-26T18:00:15.582Z,31.67
2018-07-26T18:02:51.696Z,30.57
2018-07-26T18:05:27.589Z,29.77
2018-07-26T18:08:04.071Z,29.40
2018-07-26T18:10:40.697Z,29.90
2018-07-26T18:13:17.889Z,27.87
2018-07-26T18:15:54.812Z,30.13
2018-07-26T18:18:32.062Z,29.00
2018-07-26T18:21:08.745Z,29.30
2018-07-26T18:23:45.946Z,29.70
2018-07-26T18:26:22.176Z,28.23
2018-07-26T18:28:58.661Z,29.40
2018-07-26T18:31:35.189Z,27.23
2018-07-26T18:34:11.537Z,26.47
2018-07-26T18:36:47.979Z,27.90
2018-07-26T18:39:25.223Z,27.90
2018-07-26T18:42:02.172Z,26.77
2018-07-26T18:44:39.114Z,25.90
2018-07-26T18:47:16.753Z,27.20
2018-07-26T18:49:54.624Z,26.97
2018-07-26T18:52:32.419Z,27.33
2018-07-26T18:55:10.292Z,27.67
2018-07-26T18:57:47.937Z,28.20
2018-07-26T19:00:24.455Z,28.90
2018-07-26T19:03:01.863Z,27.03
2018-07-26T19:05:39.025Z,26.23
2018-07-26T19:08:16.423Z,26.10
2018-07-26T19:10:54.166Z,27.07
2018-07-26T19:13:31.620Z,26.13
2018-07-26T19:16:08.510Z,26.67
2018-07-26T19:18:45.358Z,25.40
2018-07-26T19:21:22.322Z,26.23
2018-07-26T19:24:00.084Z,25.97
2018-07-26T19:26:37.892Z,24.47
2018-07-26T19:29:15.200Z,25.23
2018-07-26T19:31:53.042Z,25.70
2018-07-26T19:34:30.860Z,25.97
2018-07-26T19:37:08.409Z,26.57
2018-07-26T19:39:46.705Z,24.77
2018-07-26T19:42:24.753Z,25.67
2018-07-26T19:45:01.850Z,25.77
2018-07-26T19:47:39.625Z,25.47
2018-07-26T19:50:17.269Z,25.77
2018-07-26T19:52:54.539Z,25.73
2018-07-26T19:55:31.994Z,25.80
2018-07-26T19:58:09.769Z,25.27
2018-07-26T20:00:45.876Z,24.47
2018-07-26T20:03:23.361Z,23.80
2018-07-26T20:06:00.635Z,22.87
2018-07-26T20:08:37.979Z,23.10
2018-07-26T20:11:15.515Z,21.73
2018-07-26T20:13:52.550Z,21.27
2018-07-26T20:16:29.477Z,20.63
2018-07-26T20:19:06.760Z,19.93
2018-07-26T20:21:43.927Z,18.87
2018-07-26T20:24:21.152Z,18.33
2018-07-26T20:26:58.662Z,17.70
2018-07-26T20:29:35.514Z,14.93
2018-07-26T20:32:11.869Z,14.97
2018-07-26T20:39:23.669Z,12.53
2018-07-26T20:42:00.847Z,12.53
2018-07-26T20:44:37.843Z,12.27
2018-07-26T20:47:15.397Z,11.87
2018-07-26T20:49:52.766Z,12.30
2018-07-26T20:52:29.836Z,13.27
2018-07-26T20:55:06.906Z,12.47
2018-07-26T20:57:43.755Z,13.63
2018-07-26T21:00:20.717Z,13.23
2018-07-26T21:02:58.266Z,13.53
2018-07-26T21:05:35.493Z,13.10
2018-07-26T21:08:13.227Z,11.70
2018-07-26T21:10:50.476Z,11.90
2018-07-26T21:13:28.727Z,11.30
2018-07-26T21:16:05.434Z,11.17
2018-07-26T21:18:42.954Z,9.87
2018-07-26T21:21:20.759Z,9.77
2018-07-26T21:23:57.964Z,9.93
2018-07-26T21:26:35.684Z,10.47
2018-07-26T21:29:12.650Z,10.07
2018-07-26T21:31:50.607Z,10.50
2018-07-26T21:34:27.929Z,10.27
2018-07-26T21:37:05.278Z,10.37
2018-07-26T21:39:43.354Z,10.53
2018-07-26T21:42:20.528Z,10.17
2018-07-26T21:44:57.603Z,10.80
2018-07-26T21:47:34.343Z,10.27
2018-07-26T21:50:10.874Z,10.90
2018-07-26T21:52:48.380Z,11.17
2018-07-26T21:55:26.430Z,11.00
2018-07-26T21:58:04.003Z,11.33
2018-07-26T22:00:45.113Z,10.40
2018-07-26T22:03:21.917Z,11.43
2018-07-26T22:05:58.846Z,10.70
2018-07-26T22:08:35.670Z,11.50
2018-07-26T22:11:12.761Z,11.53
2018-07-26T22:13:50.209Z,12.47
2018-07-26T22:16:27.072Z,12.13
2018-07-26T22:19:04.092Z,11.47
2018-07-26T22:21:41.283Z,11.07
2018-07-26T22:24:18.303Z,11.87
2018-07-26T22:26:54.964Z,11.47
2018-07-26T22:29:33.062Z,11.53
2018-07-26T22:32:09.713Z,11.80
2018-07-26T22:34:46.391Z,11.50
2018-07-26T22:37:23.601Z,11.87
2018-07-26T22:40:00.565Z,10.67
2018-07-26T22:42:38.098Z,11.13
2018-07-26T22:45:16.301Z,11.90
2018-07-26T22:47:53.071Z,11.97
2018-07-26T22:50:30.794Z,12.07
2018-07-26T22:53:08.081Z,11.73
2018-07-26T22:55:45.572Z,11.37
2018-07-26T22:58:22.797Z,11.70
2018-07-26T23:01:00.440Z,11.77
2018-07-26T23:03:38.239Z,10.93
2018-07-26T23:06:15.325Z,11.37
2018-07-26T23:08:52.918Z,10.33
2018-07-26T23:11:30.589Z,10.90
2018-07-26T23:14:08.136Z,11.13
2018-07-26T23:16:45.773Z,10.60
2018-07-26T23:19:23.589Z,10.87
2018-07-26T23:22:00.528Z,10.63
2018-07-26T23:24:37.337Z,10.13
2018-07-26T23:27:14.656Z,10.10
2018-07-26T23:29:51.926Z,9.87
2018-07-26T23:32:30.297Z,10.07
2018-07-26T23:35:08.500Z,10.07
2018-07-26T23:37:46.142Z,9.57
2018-07-26T23:40:23.882Z,9.97
2018-07-26T23:43:04.399Z,9.73
2018-07-26T23:45:41.216Z,9.70
2018-07-26T23:48:18.320Z,10.70
2018-07-26T23:50:55.866Z,11.13
2018-07-26T23:53:32.917Z,10.20
2018-07-26T23:56:09.947Z,10.40
2018-07-26T23:58:47.366Z,10.53
